Terminal Aerodrome Forecast
Issued by NWS

Home | Current Version | Previous Version | Text Only | Print | Product List | Glossary On
Versions: 1 2 3 4 5 6 7 8 9 10 11 12 13 14 15 16 17 18 19 20 21 22
000
FTUS43 KPAH 192050 AAA
TAFCGI
TAF AMD
KCGI 192050Z 1921/2018 12004KT 1/4SM FG VCSH OVC003
     FM200100 12001KT 1 1/2SM BR OVC003
     FM200400 00000KT 1 1/2SM -SHRA BR OVC003
     FM201400 18005KT 4SM -SHRA BR BKN009=

USA.gov is the U.S. government's official web portal to all federal, state and local government web resources and services.